createdAt,value
2023-05-14T00:02:11.857Z,92.50
2023-05-14T00:04:41.097Z,92.70
2023-05-14T00:07:10.176Z,92.80
2023-05-14T00:09:38.992Z,92.70
2023-05-14T00:12:07.195Z,92.40
2023-05-14T00:14:34.929Z,92.10
2023-05-14T00:17:02.924Z,91.90
2023-05-14T00:19:30.638Z,92.30
2023-05-14T00:21:59.638Z,92.00
2023-05-14T00:24:27.647Z,92.70
2023-05-14T00:26:55.442Z,92.80
2023-05-14T00:29:23.133Z,93.10
2023-05-14T00:31:50.934Z,93.00
2023-05-14T00:34:18.760Z,93.20
2023-05-14T00:36:46.496Z,93.10
2023-05-14T00:39:15.728Z,93.20
2023-05-14T00:41:43.423Z,93.10
2023-05-14T00:44:11.176Z,93.30
2023-05-14T00:46:38.986Z,93.60
2023-05-14T00:49:06.821Z,93.70
2023-05-14T00:51:34.922Z,93.50
2023-05-14T00:54:03.130Z,93.50
2023-05-14T00:56:32.696Z,93.60
2023-05-14T00:59:00.811Z,93.60
2023-05-14T01:01:28.834Z,93.60
2023-05-14T01:03:57.829Z,93.60
2023-05-14T01:06:36.443Z,93.20
2023-05-14T01:09:09.726Z,93.30
2023-05-14T01:11:44.944Z,93.10
2023-05-14T01:14:17.400Z,93.50
2023-05-14T01:16:48.014Z,93.60
2023-05-14T01:19:24.176Z,93.60
2023-05-14T01:21:53.190Z,93.50
2023-05-14T01:24:20.981Z,93.70
2023-05-14T01:26:48.683Z,93.60
2023-05-14T01:29:22.406Z,93.50
2023-05-14T01:31:52.260Z,93.80
2023-05-14T01:34:23.629Z,94.00
2023-05-14T01:36:53.934Z,94.00
2023-05-14T01:39:22.504Z,94.10
2023-05-14T01:41:50.703Z,93.90
2023-05-14T01:44:19.908Z,93.80
2023-05-14T01:46:47.613Z,93.80
2023-05-14T01:49:16.038Z,94.00
2023-05-14T01:51:43.725Z,93.90
2023-05-14T01:54:12.770Z,93.60
2023-05-14T01:56:40.474Z,93.70
2023-05-14T01:59:08.211Z,93.80
2023-05-14T02:01:36.029Z,94.00
2023-05-14T02:04:04.403Z,94.30
2023-05-14T02:06:32.718Z,94.30
2023-05-14T02:09:01.535Z,94.20
2023-05-14T02:11:30.617Z,94.20
2023-05-14T02:13:58.320Z,94.40
2023-05-14T02:16:26.224Z,94.50
2023-05-14T02:18:54.198Z,94.50
2023-05-14T02:21:21.955Z,94.40
2023-05-14T02:23:50.160Z,94.20
2023-05-14T02:26:17.893Z,94.00
2023-05-14T02:28:46.939Z,93.90
2023-05-14T02:31:14.703Z,94.00
2023-05-14T02:33:42.949Z,94.10
2023-05-14T02:36:10.660Z,94.30
2023-05-14T02:38:38.789Z,94.60
2023-05-14T02:41:06.690Z,94.60
2023-05-14T02:43:34.386Z,94.40
2023-05-14T02:46:03.623Z,94.30
2023-05-14T02:48:31.294Z,94.20
2023-05-14T02:50:59.102Z,94.10
2023-05-14T02:53:26.750Z,94.30
2023-05-14T02:55:54.477Z,94.50
2023-05-14T02:58:25.760Z,94.70
2023-05-14T03:00:57.203Z,94.70
2023-05-14T03:03:26.923Z,94.90
2023-05-14T03:05:55.191Z,94.80
2023-05-14T03:08:22.968Z,94.80
2023-05-14T03:10:50.700Z,94.70
2023-05-14T03:13:20.499Z,94.80
2023-05-14T03:15:48.543Z,94.90
2023-05-14T03:18:16.292Z,94.70
2023-05-14T03:20:45.366Z,95.00
2023-05-14T03:23:13.351Z,94.80
2023-05-14T03:25:41.172Z,94.70
2023-05-14T03:28:09.697Z,94.20
2023-05-14T03:30:37.819Z,94.00
2023-05-14T03:33:05.832Z,93.90
2023-05-14T03:35:33.978Z,93.90
2023-05-14T03:38:03.057Z,94.20
2023-05-14T03:40:30.947Z,94.10
2023-05-14T03:42:58.674Z,93.80
2023-05-14T03:45:26.830Z,93.80
2023-05-14T03:47:54.603Z,93.90
2023-05-14T03:50:25.348Z,93.80
2023-05-14T03:52:53.448Z,93.80
2023-05-14T03:55:22.752Z,93.70
2023-05-14T03:57:50.638Z,93.60
2023-05-14T04:00:19.651Z,93.80
2023-05-14T04:03:02.002Z,93.90
2023-05-14T04:05:29.807Z,93.90
2023-05-14T04:07:58.138Z,93.90
2023-05-14T04:10:26.034Z,93.90
2023-05-14T04:12:55.058Z,94.00
2023-05-14T04:15:28.701Z,93.80
2023-05-14T04:17:58.281Z,93.80
2023-05-14T04:20:27.491Z,93.80
2023-05-14T04:22:57.360Z,93.50
2023-05-14T04:25:25.071Z,93.50
2023-05-14T04:27:52.776Z,93.50
2023-05-14T04:30:20.970Z,93.80
2023-05-14T04:32:48.874Z,93.80
2023-05-14T04:35:16.636Z,93.90
2023-05-14T04:37:45.631Z,93.80
2023-05-14T04:40:13.694Z,93.60
2023-05-14T04:42:41.377Z,93.50
2023-05-14T04:45:09.830Z,93.30
2023-05-14T04:47:37.720Z,93.40
2023-05-14T04:50:06.357Z,93.30
2023-05-14T04:52:34.459Z,93.30
2023-05-14T04:55:03.595Z,93.30
2023-05-14T04:57:31.320Z,93.30
2023-05-14T04:59:59.031Z,93.00
2023-05-14T05:02:28.211Z,92.90
2023-05-14T05:04:57.992Z,93.20
2023-05-14T05:07:25.760Z,93.30
2023-05-14T05:09:54.051Z,93.40
2023-05-14T05:12:24.972Z,93.30
2023-05-14T05:14:54.479Z,92.70
2023-05-14T05:17:22.220Z,92.40
2023-05-14T05:19:49.931Z,92.40
2023-05-14T05:22:17.917Z,92.40
2023-05-14T05:24:49.233Z,92.30
2023-05-14T05:27:23.325Z,92.30
2023-05-14T05:29:52.549Z,92.10
2023-05-14T05:32:20.285Z,91.60
2023-05-14T05:34:48.051Z,91.80
2023-05-14T05:37:15.758Z,92.00
2023-05-14T05:39:44.665Z,92.20
2023-05-14T05:42:12.459Z,92.20
2023-05-14T05:44:40.193Z,91.60
2023-05-14T05:47:09.888Z,90.90
2023-05-14T05:49:37.793Z,90.40
2023-05-14T05:52:05.909Z,89.30
2023-05-14T05:54:33.601Z,87.50
2023-05-14T05:57:01.688Z,87.40
2023-05-14T05:59:29.449Z,87.10
2023-05-14T06:01:57.370Z,87.20
2023-05-14T06:04:26.395Z,86.70
2023-05-14T06:06:54.052Z,86.20
2023-05-14T06:09:24.991Z,84.10
2023-05-14T06:11:56.316Z,84.40
2023-05-14T06:14:24.169Z,83.40
2023-05-14T06:16:52.268Z,81.80
2023-05-14T06:19:20.100Z,79.00
2023-05-14T06:21:51.439Z,78.40
2023-05-14T06:24:19.938Z,75.20
2023-05-14T06:26:48.703Z,73.30
2023-05-14T06:29:16.426Z,71.00
2023-05-14T06:31:44.286Z,67.70
2023-05-14T06:34:12.020Z,67.90
2023-05-14T06:36:40.087Z,65.10
2023-05-14T06:39:09.330Z,63.30
2023-05-14T06:41:37.013Z,62.60
2023-05-14T06:44:05.013Z,61.70
2023-05-14T06:46:32.769Z,62.00
2023-05-14T06:49:00.503Z,60.70
2023-05-14T06:51:28.271Z,60.50
2023-05-14T06:53:56.094Z,58.40
2023-05-14T06:56:26.507Z,57.70
2023-05-14T06:58:55.452Z,57.10
2023-05-14T07:01:23.891Z,55.90
2023-05-14T07:03:54.471Z,56.00
2023-05-14T07:06:24.326Z,56.20
2023-05-14T07:08:53.229Z,55.30
2023-05-14T07:11:21.960Z,54.80
2023-05-14T07:13:52.301Z,54.70
2023-05-14T07:16:22.336Z,55.30
2023-05-14T07:18:50.181Z,54.10
2023-05-14T07:21:19.179Z,53.30
2023-05-14T07:23:46.844Z,53.40
2023-05-14T07:26:15.727Z,53.60
2023-05-14T07:28:44.611Z,52.80
2023-05-14T07:31:13.637Z,52.40
2023-05-14T07:33:43.630Z,52.90
2023-05-14T07:36:14.983Z,48.30
2023-05-14T07:38:42.747Z,48.50
2023-05-14T07:41:12.147Z,48.60
2023-05-14T07:43:41.543Z,48.50
2023-05-14T07:46:10.281Z,48.90
2023-05-14T07:48:41.742Z,50.00
2023-05-14T07:51:09.529Z,50.70
2023-05-14T07:53:37.496Z,49.90
2023-05-14T07:56:06.973Z,48.80
2023-05-14T07:58:35.088Z,49.00
2023-05-14T08:01:06.815Z,48.60
2023-05-14T08:03:35.792Z,49.70
2023-05-14T08:06:05.292Z,48.40
2023-05-14T08:08:34.191Z,47.40
2023-05-14T08:11:04.182Z,48.30
2023-05-14T08:13:31.981Z,46.20
2023-05-14T08:15:59.690Z,45.00
2023-05-14T08:18:27.731Z,44.40
2023-05-14T08:20:55.984Z,46.60
2023-05-14T08:23:26.738Z,46.10
2023-05-14T08:25:56.747Z,46.00
2023-05-14T08:28:24.671Z,47.10
2023-05-14T08:30:52.433Z,44.80
2023-05-14T08:33:20.171Z,44.00
2023-05-14T08:35:47.900Z,46.10
2023-05-14T08:38:17.028Z,45.60
2023-05-14T08:40:49.600Z,46.20
2023-05-14T08:43:24.293Z,47.70
2023-05-14T08:45:57.953Z,48.20
2023-05-14T08:48:29.928Z,44.40
2023-05-14T08:50:58.292Z,44.90
2023-05-14T08:53:26.218Z,43.30
2023-05-14T08:55:55.621Z,43.70
2023-05-14T08:58:23.405Z,45.60
2023-05-14T09:00:51.152Z,47.50
2023-05-14T09:03:19.374Z,48.50
2023-05-14T09:05:48.754Z,47.00
2023-05-14T09:08:16.510Z,48.20
2023-05-14T09:10:44.404Z,49.90
2023-05-14T09:13:13.499Z,52.00
2023-05-14T09:15:41.523Z,49.60
2023-05-14T09:18:09.394Z,49.60
2023-05-14T09:20:37.768Z,48.50
2023-05-14T09:23:05.838Z,51.20
2023-05-14T09:25:33.805Z,50.40
2023-05-14T09:28:07.515Z,51.50
2023-05-14T09:30:37.013Z,53.00
2023-05-14T09:33:04.939Z,56.00
2023-05-14T09:35:33.336Z,54.20
2023-05-14T09:38:01.180Z,54.10
2023-05-14T09:40:29.357Z,53.60
2023-05-14T09:42:57.421Z,55.40
2023-05-14T09:45:25.156Z,54.60
2023-05-14T09:47:54.214Z,55.40
2023-05-14T09:50:22.684Z,54.10
2023-05-14T09:52:50.592Z,51.10
2023-05-14T09:55:22.552Z,50.30
2023-05-14T09:57:51.532Z,49.30
2023-05-14T10:00:19.963Z,48.00
2023-05-14T10:02:48.751Z,48.10
2023-05-14T10:05:19.013Z,45.80
2023-05-14T10:07:49.326Z,44.50
2023-05-14T10:10:23.519Z,45.00
2023-05-14T10:12:54.400Z,46.70
2023-05-14T10:15:35.770Z,46.10
2023-05-14T10:18:10.751Z,48.10
2023-05-14T10:20:41.917Z,48.80
2023-05-14T10:23:10.258Z,49.10
2023-05-14T10:25:38.773Z,49.60
2023-05-14T10:28:06.947Z,51.50
2023-05-14T10:30:34.628Z,52.20
2023-05-14T10:33:09.477Z,52.40
2023-05-14T10:36:00.489Z,52.80
2023-05-14T10:38:30.566Z,52.60
2023-05-14T10:41:00.737Z,54.20
2023-05-14T10:43:30.765Z,56.00
2023-05-14T10:46:00.749Z,54.20
2023-05-14T10:48:28.588Z,53.80
2023-05-14T10:50:58.779Z,52.90
2023-05-14T10:53:34.285Z,52.60
2023-05-14T10:56:05.787Z,53.40
2023-05-14T10:58:36.959Z,51.50
2023-05-14T11:01:07.410Z,52.20
2023-05-14T11:03:43.654Z,46.40
2023-05-14T11:06:14.859Z,44.60
2023-05-14T11:08:43.017Z,45.30
2023-05-14T11:11:11.170Z,45.80
2023-05-14T11:13:39.576Z,46.70
2023-05-14T11:18:41.568Z,45.50
2023-05-14T11:21:09.466Z,45.90
2023-05-14T11:23:38.678Z,45.50
2023-05-14T11:26:08.484Z,47.80
2023-05-14T11:28:36.914Z,49.60
2023-05-14T11:31:05.820Z,49.50
2023-05-14T11:33:35.119Z,50.90
2023-05-14T11:36:03.423Z,51.20
2023-05-14T11:38:31.136Z,54.00
2023-05-14T11:41:01.289Z,51.90
2023-05-14T11:43:29.540Z,50.80
2023-05-14T11:45:57.502Z,52.80
2023-05-14T11:48:25.513Z,53.60
2023-05-14T11:50:57.565Z,52.20
2023-05-14T11:53:28.718Z,51.50
2023-05-14T11:56:00.287Z,49.90
2023-05-14T11:58:28.059Z,47.80
2023-05-14T12:00:58.581Z,46.40
2023-05-14T12:03:29.238Z,47.80
2023-05-14T12:05:59.776Z,48.00
2023-05-14T12:08:30.659Z,49.30
2023-05-14T12:11:01.850Z,48.50
2023-05-14T12:13:32.716Z,51.50
2023-05-14T12:16:02.017Z,53.00
2023-05-14T12:18:34.377Z,52.90
2023-05-14T12:21:07.736Z,54.70
2023-05-14T12:23:37.081Z,52.50
2023-05-14T12:26:08.563Z,52.50
2023-05-14T12:28:43.078Z,51.20
2023-05-14T12:31:13.804Z,50.80
2023-05-14T12:33:41.912Z,51.90
2023-05-14T12:36:21.138Z,52.50
2023-05-14T12:38:51.732Z,53.40
2023-05-14T12:41:21.197Z,53.90
2023-05-14T12:43:50.725Z,53.30
2023-05-14T12:46:18.573Z,54.20
2023-05-14T12:48:51.755Z,55.10
2023-05-14T12:51:23.252Z,55.90
2023-05-14T12:53:54.025Z,57.60
2023-05-14T12:56:28.110Z,57.40
2023-05-14T12:58:57.153Z,56.80
2023-05-14T13:01:25.649Z,58.00
2023-05-14T13:03:53.551Z,58.50
2023-05-14T13:06:21.264Z,59.40
2023-05-14T13:08:50.691Z,60.00
2023-05-14T13:11:19.311Z,58.40
2023-05-14T13:13:48.436Z,58.90
2023-05-14T13:16:19.150Z,57.40
2023-05-14T13:18:49.266Z,57.70
2023-05-14T13:21:17.114Z,58.50
2023-05-14T13:23:44.859Z,59.50
2023-05-14T13:26:14.016Z,57.70
2023-05-14T13:28:44.607Z,58.70
2023-05-14T13:31:15.244Z,60.00
2023-05-14T13:33:46.522Z,60.50
2023-05-14T13:36:15.709Z,61.10
2023-05-14T13:38:44.672Z,61.20
2023-05-14T13:41:13.035Z,59.90
2023-05-14T13:43:41.971Z,60.40
2023-05-14T13:46:13.430Z,59.30
2023-05-14T13:48:41.964Z,61.10
2023-05-14T13:51:09.703Z,59.60
2023-05-14T13:53:37.431Z,59.20
2023-05-14T13:56:06.349Z,60.20
2023-05-14T13:58:34.116Z,58.60
2023-05-14T14:01:02.453Z,58.40
2023-05-14T14:03:32.734Z,59.70
2023-05-14T14:06:03.378Z,62.20
2023-05-14T14:08:31.201Z,58.80
2023-05-14T14:11:02.208Z,57.80
2023-05-14T14:13:31.143Z,58.40
2023-05-14T14:15:58.939Z,58.10
2023-05-14T14:18:28.573Z,58.10
2023-05-14T14:20:58.290Z,57.80
2023-05-14T14:23:26.306Z,58.40
2023-05-14T14:25:54.340Z,58.50
2023-05-14T14:28:22.066Z,59.10
2023-05-14T14:30:49.779Z,60.30
2023-05-14T14:33:17.584Z,59.80
2023-05-14T14:35:45.475Z,60.70
2023-05-14T14:38:16.512Z,59.80
2023-05-14T14:40:47.417Z,59.20
2023-05-14T14:43:15.154Z,58.40
2023-05-14T14:45:46.810Z,58.20
2023-05-14T14:48:24.980Z,59.10
2023-05-14T14:50:54.007Z,58.40
2023-05-14T14:53:23.885Z,56.90
2023-05-14T14:55:51.942Z,56.80
2023-05-14T14:58:20.585Z,58.80
2023-05-14T15:00:48.524Z,58.00
2023-05-14T15:03:16.536Z,56.00
2023-05-14T15:05:45.814Z,57.90
2023-05-14T15:08:13.601Z,57.50
2023-05-14T15:10:42.684Z,57.80
2023-05-14T15:13:14.386Z,57.70
2023-05-14T15:15:42.223Z,57.00
2023-05-14T15:18:12.305Z,56.20
2023-05-14T15:20:40.611Z,55.60
2023-05-14T15:23:08.564Z,55.30
2023-05-14T15:25:37.067Z,55.10
2023-05-14T15:28:06.591Z,56.60
2023-05-14T15:30:34.464Z,56.70
2023-05-14T15:33:02.410Z,57.40
2023-05-14T15:35:31.332Z,56.40
2023-05-14T15:38:02.180Z,55.70
2023-05-14T15:40:30.376Z,58.00
2023-05-14T15:42:59.976Z,58.60
2023-05-14T15:45:30.688Z,58.00
2023-05-14T15:47:58.520Z,58.20
2023-05-14T15:50:29.351Z,58.50
2023-05-14T15:52:57.151Z,58.40
2023-05-14T15:55:25.604Z,59.30
2023-05-14T15:57:53.535Z,58.70
2023-05-14T16:00:21.783Z,59.30
2023-05-14T16:02:51.388Z,60.00
2023-05-14T16:05:19.248Z,60.10
2023-05-14T16:07:46.994Z,60.90
2023-05-14T16:10:16.099Z,61.40
2023-05-14T16:12:43.923Z,62.00
2023-05-14T16:15:13.184Z,61.30
2023-05-14T16:17:41.888Z,61.70
2023-05-14T16:20:13.496Z,62.20
2023-05-14T16:22:42.896Z,60.50
2023-05-14T16:25:10.789Z,61.80
2023-05-14T16:27:38.559Z,61.40
2023-05-14T16:30:07.363Z,61.50
2023-05-14T16:32:35.118Z,62.00
2023-05-14T16:35:03.127Z,61.00
2023-05-14T16:37:32.408Z,60.80
2023-05-14T16:40:00.193Z,59.80
2023-05-14T16:42:27.861Z,59.40
2023-05-14T16:44:55.640Z,60.80
2023-05-14T16:47:23.385Z,60.00
2023-05-14T16:49:52.242Z,59.50
2023-05-14T16:52:19.890Z,60.40
2023-05-14T16:54:48.954Z,61.50
2023-05-14T16:57:16.652Z,61.40
2023-05-14T16:59:44.423Z,62.10
2023-05-14T17:02:12.138Z,62.10
2023-05-14T17:04:42.207Z,62.10
2023-05-14T17:07:10.323Z,63.00
2023-05-14T17:09:38.564Z,63.70
2023-05-14T17:12:08.248Z,63.90
2023-05-14T17:14:35.985Z,63.80
2023-05-14T17:17:04.513Z,63.70
2023-05-14T17:19:32.297Z,64.50
2023-05-14T17:22:00.424Z,65.40
2023-05-14T17:24:28.206Z,65.70
2023-05-14T17:26:57.640Z,66.60
2023-05-14T17:29:30.139Z,66.20
2023-05-14T17:31:58.576Z,67.40
2023-05-14T17:34:28.001Z,67.20
2023-05-14T17:36:57.067Z,68.10
2023-05-14T17:39:24.813Z,67.50
2023-05-14T17:41:52.778Z,67.50
2023-05-14T17:44:20.536Z,67.50
2023-05-14T17:46:50.334Z,67.50
2023-05-14T17:49:19.325Z,68.00
2023-05-14T17:51:47.052Z,68.30
2023-05-14T17:54:16.144Z,67.90
2023-05-14T17:56:44.178Z,67.90
2023-05-14T17:59:12.744Z,68.20
2023-05-14T18:01:41.216Z,68.20
2023-05-14T18:04:10.805Z,68.20
2023-05-14T18:06:38.900Z,68.70
2023-05-14T18:09:07.623Z,69.70
2023-05-14T18:11:35.544Z,69.00
2023-05-14T18:14:03.655Z,70.20
2023-05-14T18:16:33.206Z,70.10
2023-05-14T18:19:03.438Z,71.50
2023-05-14T18:21:34.339Z,71.30
2023-05-14T18:24:04.180Z,71.80
2023-05-14T18:26:34.221Z,72.20
2023-05-14T18:29:08.244Z,73.30
2023-05-14T18:31:36.051Z,74.60
2023-05-14T18:34:03.967Z,75.70
2023-05-14T18:36:33.550Z,76.10
2023-05-14T18:39:02.660Z,76.30
2023-05-14T18:41:33.051Z,76.80
2023-05-14T18:44:04.815Z,77.40
2023-05-14T18:46:36.469Z,77.10
2023-05-14T18:49:04.625Z,77.70
2023-05-14T18:51:35.023Z,78.20
2023-05-14T18:54:03.700Z,78.60
2023-05-14T18:56:31.744Z,78.80
2023-05-14T18:59:00.783Z,79.80
2023-05-14T19:01:28.873Z,80.40
2023-05-14T19:03:58.999Z,80.40
2023-05-14T19:06:26.815Z,80.80
2023-05-14T19:08:56.834Z,81.00
2023-05-14T19:11:24.666Z,81.60
2023-05-14T19:13:56.609Z,81.60
2023-05-14T19:16:25.975Z,81.50
2023-05-14T19:18:54.099Z,81.30
2023-05-14T19:21:23.415Z,81.80
2023-05-14T19:23:53.999Z,82.20
2023-05-14T19:26:28.377Z,82.80
2023-05-14T19:28:58.553Z,83.40
2023-05-14T19:31:29.412Z,83.20
2023-05-14T19:34:00.860Z,83.80
2023-05-14T19:36:32.705Z,84.10
2023-05-14T19:39:00.548Z,84.10
2023-05-14T19:41:29.809Z,84.80
2023-05-14T19:43:57.497Z,85.20
2023-05-14T19:46:25.460Z,85.00
2023-05-14T19:48:53.371Z,85.10
2023-05-14T19:51:21.533Z,85.00
2023-05-14T19:53:49.790Z,85.40
2023-05-14T19:56:17.584Z,86.10
2023-05-14T19:58:46.621Z,86.10
2023-05-14T20:01:14.449Z,85.90
2023-05-14T20:03:42.311Z,86.20
2023-05-14T20:06:10.638Z,86.80
2023-05-14T20:08:38.481Z,87.00
2023-05-14T20:11:09.571Z,86.80
2023-05-14T20:13:38.139Z,86.80
2023-05-14T20:16:09.554Z,86.30
2023-05-14T20:18:37.392Z,86.40
2023-05-14T20:21:08.011Z,86.40
2023-05-14T20:23:36.058Z,86.00
2023-05-14T20:26:04.054Z,85.70
2023-05-14T20:28:32.188Z,86.00
2023-05-14T20:31:01.145Z,86.40
2023-05-14T20:33:30.469Z,86.40
2023-05-14T20:35:58.306Z,86.50
2023-05-14T20:38:29.212Z,86.70
2023-05-14T20:40:56.932Z,86.60
2023-05-14T20:43:24.809Z,86.80
2023-05-14T20:45:52.524Z,87.00
2023-05-14T20:48:21.374Z,87.30
2023-05-14T20:50:50.378Z,87.50
2023-05-14T20:53:18.129Z,88.00
2023-05-14T20:55:45.855Z,88.20
2023-05-14T20:58:13.509Z,88.70
2023-05-14T21:00:41.348Z,88.90
2023-05-14T21:03:09.289Z,88.90
2023-05-14T21:05:37.107Z,89.20
2023-05-14T21:08:06.287Z,89.10
2023-05-14T21:10:34.003Z,88.90
2023-05-14T21:13:01.764Z,88.60
2023-05-14T21:15:30.498Z,88.20
2023-05-14T21:17:58.323Z,88.30
2023-05-14T21:20:26.121Z,88.70
2023-05-14T21:22:53.892Z,88.90
2023-05-14T21:25:23.153Z,89.00
2023-05-14T21:27:51.212Z,89.00
2023-05-14T21:30:18.963Z,89.20
2023-05-14T21:32:47.355Z,89.20
2023-05-14T21:35:15.301Z,89.20
2023-05-14T21:37:45.599Z,88.90
2023-05-14T21:40:13.820Z,88.90
2023-05-14T21:42:42.928Z,89.10
2023-05-14T21:45:11.210Z,89.50
2023-05-14T21:47:39.196Z,89.70
2023-05-14T21:50:07.574Z,90.20
2023-05-14T21:52:35.673Z,89.80
2023-05-14T21:55:03.330Z,89.90
2023-05-14T21:57:34.296Z,90.20
2023-05-14T22:00:04.681Z,90.20
2023-05-14T22:02:46.677Z,90.80
2023-05-14T22:05:14.510Z,90.90
2023-05-14T22:07:42.195Z,90.80
2023-05-14T22:10:10.741Z,91.00
2023-05-14T22:12:38.439Z,90.90
2023-05-14T22:15:07.162Z,91.00
2023-05-14T22:17:35.030Z,91.00
2023-05-14T22:20:06.463Z,91.10
2023-05-14T22:22:34.929Z,91.10
2023-05-14T22:25:02.712Z,91.10
2023-05-14T22:27:31.583Z,91.30
2023-05-14T22:29:59.887Z,91.70
2023-05-14T22:32:27.759Z,91.90
2023-05-14T22:34:55.723Z,91.80
2023-05-14T22:37:24.773Z,91.10
2023-05-14T22:39:52.470Z,90.70
2023-05-14T22:42:21.288Z,90.80
2023-05-14T22:44:48.969Z,90.10
2023-05-14T22:47:16.915Z,90.40
2023-05-14T22:49:44.620Z,90.60
2023-05-14T22:52:12.292Z,90.30
2023-05-14T22:54:41.282Z,90.60
2023-05-14T22:57:09.160Z,90.80
2023-05-14T22:59:36.892Z,90.70
2023-05-14T23:02:04.807Z,90.60
2023-05-14T23:04:32.566Z,90.90
2023-05-14T23:07:00.453Z,91.00
2023-05-14T23:09:28.329Z,91.10
2023-05-14T23:11:57.427Z,90.80
2023-05-14T23:14:25.486Z,91.10
2023-05-14T23:16:53.267Z,91.10
2023-05-14T23:19:22.461Z,91.50
2023-05-14T23:21:50.314Z,91.80
2023-05-14T23:24:18.018Z,91.90
2023-05-14T23:26:45.814Z,91.80
2023-05-14T23:29:14.847Z,91.90
2023-05-14T23:31:43.477Z,91.90
2023-05-14T23:34:12.143Z,91.80
2023-05-14T23:36:40.433Z,91.50
2023-05-14T23:39:10.205Z,91.50
2023-05-14T23:41:38.874Z,91.60
2023-05-14T23:44:07.168Z,91.70
2023-05-14T23:46:36.277Z,91.00
2023-05-14T23:49:04.008Z,90.80
2023-05-14T23:51:31.742Z,91.50
2023-05-14T23:53:59.434Z,92.30
2023-05-14T23:56:29.225Z,92.70
2023-05-14T23:58:57.236Z,92.80
